sensor_id;sensor_type;location;lat;lon;timestamp;P1;durP1;ratioP1;P2;durP2;ratioP2
26181;SDS011;13927;51.534;11.866;2022-09-23T00:01:17;5.53;;;4.38;;
26181;SDS011;13927;51.534;11.866;2022-09-23T00:03:44;5.53;;;4.22;;
26181;SDS011;13927;51.534;11.866;2022-09-23T00:06:11;5.05;;;4.50;;
26181;SDS011;13927;51.534;11.866;2022-09-23T00:08:43;5.47;;;4.43;;
26181;SDS011;13927;51.534;11.866;2022-09-23T00:11:10;4.30;;;3.70;;
26181;SDS011;13927;51.534;11.866;2022-09-23T00:13:39;4.82;;;3.85;;
26181;SDS011;13927;51.534;11.866;2022-09-23T00:16:08;5.13;;;4.20;;
26181;SDS011;13927;51.534;11.866;2022-09-23T00:18:36;5.00;;;3.55;;
26181;SDS011;13927;51.534;11.866;2022-09-23T00:21:06;7.88;;;5.63;;
26181;SDS011;13927;51.534;11.866;2022-09-23T00:23:34;4.80;;;3.85;;
26181;SDS011;13927;51.534;11.866;2022-09-23T00:26:05;4.88;;;4.15;;
26181;SDS011;13927;51.534;11.866;2022-09-23T00:28:33;6.60;;;4.82;;
26181;SDS011;13927;51.534;11.866;2022-09-23T00:31:03;7.43;;;5.85;;
26181;SDS011;13927;51.534;11.866;2022-09-23T00:33:30;7.15;;;4.90;;
26181;SDS011;13927;51.534;11.866;2022-09-23T00:36:00;5.55;;;4.65;;
26181;SDS011;13927;51.534;11.866;2022-09-23T00:38:31;6.07;;;4.22;;
26181;SDS011;13927;51.534;11.866;2022-09-23T00:40:57;5.55;;;4.28;;
26181;SDS011;13927;51.534;11.866;2022-09-23T00:46:11;5.40;;;4.90;;
26181;SDS011;13927;51.534;11.866;2022-09-23T00:48:43;7.95;;;5.25;;
26181;SDS011;13927;51.534;11.866;2022-09-23T00:51:17;6.32;;;4.63;;
26181;SDS011;13927;51.534;11.866;2022-09-23T00:53:47;5.65;;;4.80;;
26181;SDS011;13927;51.534;11.866;2022-09-23T00:56:17;5.57;;;4.55;;
26181;SDS011;13927;51.534;11.866;2022-09-23T00:58:45;6.03;;;5.07;;
26181;SDS011;13927;51.534;11.866;2022-09-23T01:01:16;6.03;;;4.30;;
26181;SDS011;13927;51.534;11.866;2022-09-23T01:03:55;6.38;;;4.20;;
26181;SDS011;13927;51.534;11.866;2022-09-23T01:06:22;4.57;;;3.90;;
26181;SDS011;13927;51.534;11.866;2022-09-23T01:08:48;4.90;;;4.13;;
26181;SDS011;13927;51.534;11.866;2022-09-23T01:23:27;5.10;;;4.47;;
26181;SDS011;13927;51.534;11.866;2022-09-23T01:32:49;6.20;;;4.20;;
26181;SDS011;13927;51.534;11.866;2022-09-23T01:44:59;7.03;;;4.88;;
26181;SDS011;13927;51.534;11.866;2022-09-23T01:47:57;5.35;;;4.10;;
26181;SDS011;13927;51.534;11.866;2022-09-23T01:50:34;7.28;;;4.70;;
26181;SDS011;13927;51.534;11.866;2022-09-23T01:53:22;6.10;;;4.72;;
26181;SDS011;13927;51.534;11.866;2022-09-23T01:55:52;4.75;;;4.25;;
26181;SDS011;13927;51.534;11.866;2022-09-23T01:58:24;7.88;;;4.40;;
26181;SDS011;13927;51.534;11.866;2022-09-23T02:00:58;5.72;;;4.53;;
26181;SDS011;13927;51.534;11.866;2022-09-23T02:03:42;5.90;;;4.47;;
26181;SDS011;13927;51.534;11.866;2022-09-23T02:06:20;6.13;;;5.25;;
26181;SDS011;13927;51.534;11.866;2022-09-23T02:11:24;7.07;;;5.22;;
26181;SDS011;13927;51.534;11.866;2022-09-23T02:13:57;5.28;;;3.22;;
26181;SDS011;13927;51.534;11.866;2022-09-23T02:16:44;6.50;;;4.50;;
26181;SDS011;13927;51.534;11.866;2022-09-23T02:22:11;5.05;;;4.45;;
26181;SDS011;13927;51.534;11.866;2022-09-23T02:24:44;6.30;;;4.43;;
26181;SDS011;13927;51.534;11.866;2022-09-23T02:27:22;5.95;;;5.32;;
26181;SDS011;13927;51.534;11.866;2022-09-23T02:30:10;7.18;;;5.57;;
26181;SDS011;13927;51.534;11.866;2022-09-23T02:46:34;4.70;;;4.30;;
26181;SDS011;13927;51.534;11.866;2022-09-23T02:49:02;5.05;;;4.55;;
26181;SDS011;13927;51.534;11.866;2022-09-23T02:51:38;5.40;;;4.68;;
26181;SDS011;13927;51.534;11.866;2022-09-23T02:54:05;4.75;;;4.20;;
26181;SDS011;13927;51.534;11.866;2022-09-23T02:56:34;6.95;;;3.45;;
26181;SDS011;13927;51.534;11.866;2022-09-23T02:59:01;5.18;;;3.10;;
26181;SDS011;13927;51.534;11.866;2022-09-23T03:01:43;3.33;;;3.00;;
26181;SDS011;13927;51.534;11.866;2022-09-23T03:07:42;8.85;;;3.80;;
26181;SDS011;13927;51.534;11.866;2022-09-23T03:16:38;4.20;;;3.20;;
26181;SDS011;13927;51.534;11.866;2022-09-23T03:22:05;8.07;;;4.97;;
26181;SDS011;13927;51.534;11.866;2022-09-23T03:24:37;20.77;;;4.85;;
26181;SDS011;13927;51.534;11.866;2022-09-23T03:27:08;20.42;;;5.97;;
26181;SDS011;13927;51.534;11.866;2022-09-23T03:29:40;4.28;;;3.88;;
26181;SDS011;13927;51.534;11.866;2022-09-23T03:32:12;4.83;;;4.17;;
26181;SDS011;13927;51.534;11.866;2022-09-23T03:34:40;9.20;;;4.55;;
26181;SDS011;13927;51.534;11.866;2022-09-23T03:37:16;12.32;;;4.78;;
26181;SDS011;13927;51.534;11.866;2022-09-23T03:43:05;7.78;;;4.25;;
26181;SDS011;13927;51.534;11.866;2022-09-23T03:45:32;4.95;;;4.10;;
26181;SDS011;13927;51.534;11.866;2022-09-23T03:48:02;4.65;;;3.83;;
26181;SDS011;13927;51.534;11.866;2022-09-23T03:50:34;5.45;;;4.55;;
26181;SDS011;13927;51.534;11.866;2022-09-23T03:53:02;6.40;;;4.95;;
26181;SDS011;13927;51.534;11.866;2022-09-23T03:55:28;6.15;;;5.20;;
26181;SDS011;13927;51.534;11.866;2022-09-23T03:57:55;5.07;;;4.30;;
26181;SDS011;13927;51.534;11.866;2022-09-23T04:00:20;5.13;;;4.60;;
26181;SDS011;13927;51.534;11.866;2022-09-23T04:02:46;6.07;;;4.45;;
26181;SDS011;13927;51.534;11.866;2022-09-23T04:05:13;5.75;;;4.75;;
26181;SDS011;13927;51.534;11.866;2022-09-23T04:07:45;5.90;;;4.68;;
26181;SDS011;13927;51.534;11.866;2022-09-23T04:10:12;6.75;;;4.70;;
26181;SDS011;13927;51.534;11.866;2022-09-23T04:12:37;4.78;;;4.28;;
26181;SDS011;13927;51.534;11.866;2022-09-23T04:15:03;5.90;;;5.15;;
26181;SDS011;13927;51.534;11.866;2022-09-23T04:17:30;5.90;;;4.55;;
26181;SDS011;13927;51.534;11.866;2022-09-23T04:19:56;5.32;;;4.80;;
26181;SDS011;13927;51.534;11.866;2022-09-23T04:22:22;96.43;;;9.68;;
26181;SDS011;13927;51.534;11.866;2022-09-23T04:24:48;6.60;;;5.55;;
26181;SDS011;13927;51.534;11.866;2022-09-23T04:27:14;60.88;;;7.25;;
26181;SDS011;13927;51.534;11.866;2022-09-23T04:29:45;8.02;;;5.45;;
26181;SDS011;13927;51.534;11.866;2022-09-23T04:32:11;29.30;;;7.43;;
26181;SDS011;13927;51.534;11.866;2022-09-23T04:34:40;13.85;;;6.78;;
26181;SDS011;13927;51.534;11.866;2022-09-23T04:37:06;24.80;;;7.72;;
26181;SDS011;13927;51.534;11.866;2022-09-23T04:39:32;12.15;;;5.70;;
26181;SDS011;13927;51.534;11.866;2022-09-23T04:42:01;5.95;;;5.25;;
26181;SDS011;13927;51.534;11.866;2022-09-23T04:44:28;9.95;;;6.35;;
26181;SDS011;13927;51.534;11.866;2022-09-23T04:46:53;18.67;;;6.93;;
26181;SDS011;13927;51.534;11.866;2022-09-23T04:49:19;24.30;;;6.32;;
26181;SDS011;13927;51.534;11.866;2022-09-23T04:51:45;15.73;;;5.85;;
26181;SDS011;13927;51.534;11.866;2022-09-23T04:54:11;7.35;;;5.88;;
26181;SDS011;13927;51.534;11.866;2022-09-23T04:56:38;50.40;;;7.55;;
26181;SDS011;13927;51.534;11.866;2022-09-23T04:59:04;16.75;;;5.53;;
26181;SDS011;13927;51.534;11.866;2022-09-23T05:01:34;6.25;;;4.95;;
26181;SDS011;13927;51.534;11.866;2022-09-23T05:04:07;6.72;;;5.95;;
26181;SDS011;13927;51.534;11.866;2022-09-23T05:06:37;5.88;;;5.28;;
26181;SDS011;13927;51.534;11.866;2022-09-23T05:09:04;8.73;;;5.68;;
26181;SDS011;13927;51.534;11.866;2022-09-23T05:11:31;8.32;;;6.88;;
26181;SDS011;13927;51.534;11.866;2022-09-23T05:13:58;7.68;;;6.00;;
26181;SDS011;13927;51.534;11.866;2022-09-23T05:16:24;6.60;;;5.50;;
26181;SDS011;13927;51.534;11.866;2022-09-23T05:18:51;6.93;;;5.65;;
26181;SDS011;13927;51.534;11.866;2022-09-23T05:21:19;7.45;;;6.13;;
26181;SDS011;13927;51.534;11.866;2022-09-23T05:23:48;10.38;;;6.25;;
26181;SDS011;13927;51.534;11.866;2022-09-23T05:26:19;5.75;;;5.15;;
26181;SDS011;13927;51.534;11.866;2022-09-23T05:28:46;19.98;;;7.18;;
26181;SDS011;13927;51.534;11.866;2022-09-23T05:31:18;9.55;;;6.80;;
26181;SDS011;13927;51.534;11.866;2022-09-23T05:33:52;7.45;;;6.75;;
26181;SDS011;13927;51.534;11.866;2022-09-23T05:36:24;7.97;;;7.03;;
26181;SDS011;13927;51.534;11.866;2022-09-23T05:38:51;7.38;;;6.47;;
26181;SDS011;13927;51.534;11.866;2022-09-23T05:41:20;9.63;;;7.03;;
26181;SDS011;13927;51.534;11.866;2022-09-23T05:43:47;7.35;;;6.55;;
26181;SDS011;13927;51.534;11.866;2022-09-23T05:46:15;7.63;;;6.82;;
26181;SDS011;13927;51.534;11.866;2022-09-23T05:48:44;7.85;;;7.05;;
26181;SDS011;13927;51.534;11.866;2022-09-23T05:51:21;8.80;;;6.50;;
26181;SDS011;13927;51.534;11.866;2022-09-23T05:53:49;6.82;;;6.18;;
26181;SDS011;13927;51.534;11.866;2022-09-23T05:56:18;7.70;;;6.85;;
26181;SDS011;13927;51.534;11.866;2022-09-23T05:58:49;8.10;;;7.30;;
26181;SDS011;13927;51.534;11.866;2022-09-23T06:01:19;8.45;;;7.55;;
26181;SDS011;13927;51.534;11.866;2022-09-23T06:03:49;8.93;;;7.82;;
26181;SDS011;13927;51.534;11.866;2022-09-23T06:06:17;7.75;;;6.95;;
26181;SDS011;13927;51.534;11.866;2022-09-23T06:08:50;9.15;;;8.25;;
26181;SDS011;13927;51.534;11.866;2022-09-23T06:11:16;7.85;;;7.05;;
26181;SDS011;13927;51.534;11.866;2022-09-23T06:13:42;7.07;;;6.38;;
26181;SDS011;13927;51.534;11.866;2022-09-23T06:16:09;7.72;;;6.28;;
26181;SDS011;13927;51.534;11.866;2022-09-23T06:18:41;8.30;;;6.65;;
26181;SDS011;13927;51.534;11.866;2022-09-23T06:21:12;6.85;;;6.15;;
26181;SDS011;13927;51.534;11.866;2022-09-23T06:23:41;6.87;;;6.17;;
26181;SDS011;13927;51.534;11.866;2022-09-23T06:26:09;8.13;;;7.32;;
26181;SDS011;13927;51.534;11.866;2022-09-23T06:28:38;7.18;;;6.47;;
26181;SDS011;13927;51.534;11.866;2022-09-23T06:31:06;8.13;;;6.60;;
26181;SDS011;13927;51.534;11.866;2022-09-23T06:33:36;7.50;;;6.80;;
26181;SDS011;13927;51.534;11.866;2022-09-23T06:36:03;9.18;;;7.15;;
26181;SDS011;13927;51.534;11.866;2022-09-23T06:38:31;7.38;;;6.60;;
26181;SDS011;13927;51.534;11.866;2022-09-23T06:41:00;8.55;;;7.55;;
26181;SDS011;13927;51.534;11.866;2022-09-23T06:43:27;8.45;;;7.65;;
26181;SDS011;13927;51.534;11.866;2022-09-23T06:45:54;8.27;;;7.47;;
26181;SDS011;13927;51.534;11.866;2022-09-23T06:48:25;9.52;;;8.13;;
26181;SDS011;13927;51.534;11.866;2022-09-23T06:50:52;9.25;;;8.13;;
26181;SDS011;13927;51.534;11.866;2022-09-23T06:53:19;9.93;;;8.93;;
26181;SDS011;13927;51.534;11.866;2022-09-23T06:55:47;10.93;;;7.57;;
26181;SDS011;13927;51.534;11.866;2022-09-23T06:58:22;12.50;;;8.27;;
26181;SDS011;13927;51.534;11.866;2022-09-23T07:00:50;11.23;;;8.43;;
26181;SDS011;13927;51.534;11.866;2022-09-23T07:03:17;8.98;;;8.07;;
26181;SDS011;13927;51.534;11.866;2022-09-23T07:05:43;10.52;;;7.90;;
26181;SDS011;13927;51.534;11.866;2022-09-23T07:08:09;11.07;;;7.40;;
26181;SDS011;13927;51.534;11.866;2022-09-23T07:10:35;9.40;;;7.97;;
26181;SDS011;13927;51.534;11.866;2022-09-23T07:13:02;8.15;;;7.38;;
26181;SDS011;13927;51.534;11.866;2022-09-23T07:15:28;9.00;;;8.07;;
26181;SDS011;13927;51.534;11.866;2022-09-23T07:17:55;9.63;;;7.30;;
26181;SDS011;13927;51.534;11.866;2022-09-23T07:20:21;9.65;;;7.90;;
26181;SDS011;13927;51.534;11.866;2022-09-23T07:22:48;8.10;;;7.32;;
26181;SDS011;13927;51.534;11.866;2022-09-23T07:25:16;17.08;;;9.18;;
26181;SDS011;13927;51.534;11.866;2022-09-23T07:27:47;10.18;;;7.75;;
26181;SDS011;13927;51.534;11.866;2022-09-23T07:30:13;10.27;;;7.80;;
26181;SDS011;13927;51.534;11.866;2022-09-23T07:32:40;9.55;;;8.48;;
26181;SDS011;13927;51.534;11.866;2022-09-23T07:35:06;8.68;;;7.82;;
26181;SDS011;13927;51.534;11.866;2022-09-23T07:37:34;8.35;;;7.45;;
26181;SDS011;13927;51.534;11.866;2022-09-23T07:40:00;9.20;;;7.95;;
26181;SDS011;13927;51.534;11.866;2022-09-23T07:42:27;8.10;;;7.13;;
26181;SDS011;13927;51.534;11.866;2022-09-23T07:44:52;7.40;;;6.68;;
26181;SDS011;13927;51.534;11.866;2022-09-23T07:47:19;11.25;;;7.25;;
26181;SDS011;13927;51.534;11.866;2022-09-23T07:49:45;15.73;;;6.60;;
26181;SDS011;13927;51.534;11.866;2022-09-23T07:52:11;11.30;;;7.00;;
26181;SDS011;13927;51.534;11.866;2022-09-23T07:54:37;7.38;;;5.97;;
26181;SDS011;13927;51.534;11.866;2022-09-23T07:57:03;6.53;;;5.93;;
26181;SDS011;13927;51.534;11.866;2022-09-23T07:59:29;6.40;;;5.80;;
26181;SDS011;13927;51.534;11.866;2022-09-23T08:01:56;16.33;;;6.50;;
26181;SDS011;13927;51.534;11.866;2022-09-23T08:04:22;7.32;;;6.05;;
26181;SDS011;13927;51.534;11.866;2022-09-23T08:06:56;7.50;;;6.18;;
26181;SDS011;13927;51.534;11.866;2022-09-23T08:09:35;6.50;;;5.60;;
26181;SDS011;13927;51.534;11.866;2022-09-23T08:12:09;8.57;;;5.40;;
26181;SDS011;13927;51.534;11.866;2022-09-23T08:14:40;6.05;;;5.55;;
26181;SDS011;13927;51.534;11.866;2022-09-23T08:17:07;7.75;;;5.55;;
26181;SDS011;13927;51.534;11.866;2022-09-23T08:19:33;9.40;;;5.95;;
26181;SDS011;13927;51.534;11.866;2022-09-23T08:21:59;7.30;;;5.63;;
26181;SDS011;13927;51.534;11.866;2022-09-23T08:24:25;6.18;;;5.57;;
26181;SDS011;13927;51.534;11.866;2022-09-23T08:26:51;8.30;;;5.65;;
26181;SDS011;13927;51.534;11.866;2022-09-23T08:29:19;6.15;;;5.30;;
26181;SDS011;13927;51.534;11.866;2022-09-23T08:31:47;5.38;;;4.88;;
26181;SDS011;13927;51.534;11.866;2022-09-23T08:34:14;5.25;;;4.60;;
26181;SDS011;13927;51.534;11.866;2022-09-23T08:36:41;5.90;;;5.35;;
26181;SDS011;13927;51.534;11.866;2022-09-23T08:39:08;5.35;;;4.85;;
26181;SDS011;13927;51.534;11.866;2022-09-23T08:41:47;7.28;;;4.70;;
26181;SDS011;13927;51.534;11.866;2022-09-23T08:49:54;5.25;;;4.25;;
26181;SDS011;13927;51.534;11.866;2022-09-23T08:55:14;3.83;;;3.33;;
26181;SDS011;13927;51.534;11.866;2022-09-23T08:58:28;4.03;;;3.63;;
26181;SDS011;13927;51.534;11.866;2022-09-23T09:09:56;4.32;;;2.40;;
26181;SDS011;13927;51.534;11.866;2022-09-23T09:26:33;5.30;;;2.38;;
26181;SDS011;13927;51.534;11.866;2022-09-23T09:31:41;5.85;;;2.67;;
26181;SDS011;13927;51.534;11.866;2022-09-23T09:39:31;3.80;;;2.38;;
26181;SDS011;13927;51.534;11.866;2022-09-23T09:41:58;2.72;;;2.20;;
26181;SDS011;13927;51.534;11.866;2022-09-23T09:47:27;4.28;;;2.33;;
26181;SDS011;13927;51.534;11.866;2022-09-23T09:52:45;3.33;;;2.03;;
26181;SDS011;13927;51.534;11.866;2022-09-23T09:57:42;3.42;;;2.20;;
26181;SDS011;13927;51.534;11.866;2022-09-23T10:10:53;2.40;;;2.20;;
26181;SDS011;13927;51.534;11.866;2022-09-23T10:13:28;2.67;;;2.45;;
26181;SDS011;13927;51.534;11.866;2022-09-23T10:15:56;3.10;;;1.92;;
26181;SDS011;13927;51.534;11.866;2022-09-23T10:18:31;2.97;;;1.92;;
26181;SDS011;13927;51.534;11.866;2022-09-23T10:21:12;2.15;;;1.75;;
26181;SDS011;13927;51.534;11.866;2022-09-23T10:23:42;2.90;;;2.20;;
26181;SDS011;13927;51.534;11.866;2022-09-23T10:26:24;2.85;;;2.00;;
26181;SDS011;13927;51.534;11.866;2022-09-23T10:29:36;2.75;;;1.63;;
26181;SDS011;13927;51.534;11.866;2022-09-23T10:40:46;3.95;;;1.90;;
26181;SDS011;13927;51.534;11.866;2022-09-23T10:46:40;2.78;;;1.75;;
26181;SDS011;13927;51.534;11.866;2022-09-23T10:49:48;3.55;;;1.90;;
26181;SDS011;13927;51.534;11.866;2022-09-23T11:01:34;2.25;;;1.52;;
26181;SDS011;13927;51.534;11.866;2022-09-23T11:12:50;1.83;;;1.60;;
26181;SDS011;13927;51.534;11.866;2022-09-23T11:15:56;5.95;;;2.10;;
26181;SDS011;13927;51.534;11.866;2022-09-23T11:24:49;4.03;;;2.13;;
26181;SDS011;13927;51.534;11.866;2022-09-23T11:30:24;2.22;;;1.75;;
26181;SDS011;13927;51.534;11.866;2022-09-23T11:33:17;2.45;;;2.10;;
26181;SDS011;13927;51.534;11.866;2022-09-23T11:36:08;3.08;;;1.83;;
26181;SDS011;13927;51.534;11.866;2022-09-23T11:38:43;3.15;;;2.15;;
26181;SDS011;13927;51.534;11.866;2022-09-23T11:41:29;2.83;;;1.80;;
26181;SDS011;13927;51.534;11.866;2022-09-23T11:44:05;4.53;;;2.20;;
26181;SDS011;13927;51.534;11.866;2022-09-23T11:52:26;6.00;;;2.50;;
26181;SDS011;13927;51.534;11.866;2022-09-23T11:55:14;3.42;;;2.20;;
26181;SDS011;13927;51.534;11.866;2022-09-23T11:57:48;4.75;;;2.40;;
26181;SDS011;13927;51.534;11.866;2022-09-23T12:00:24;4.30;;;2.60;;
26181;SDS011;13927;51.534;11.866;2022-09-23T12:05:46;3.03;;;2.20;;
26181;SDS011;13927;51.534;11.866;2022-09-23T12:17:26;2.80;;;1.80;;
26181;SDS011;13927;51.534;11.866;2022-09-23T12:23:09;3.92;;;2.05;;
26181;SDS011;13927;51.534;11.866;2022-09-23T12:25:54;2.20;;;1.63;;
26181;SDS011;13927;51.534;11.866;2022-09-23T12:28:31;2.22;;;1.55;;
26181;SDS011;13927;51.534;11.866;2022-09-23T12:31:18;2.55;;;1.92;;
26181;SDS011;13927;51.534;11.866;2022-09-23T12:33:54;3.15;;;1.77;;
26181;SDS011;13927;51.534;11.866;2022-09-23T12:36:29;2.53;;;1.73;;
26181;SDS011;13927;51.534;11.866;2022-09-23T12:39:02;2.28;;;1.50;;
26181;SDS011;13927;51.534;11.866;2022-09-23T12:42:14;1.98;;;1.35;;
26181;SDS011;13927;51.534;11.866;2022-09-23T12:44:45;2.33;;;1.20;;
26181;SDS011;13927;51.534;11.866;2022-09-23T12:49:39;1.80;;;1.42;;
26181;SDS011;13927;51.534;11.866;2022-09-23T12:54:48;2.17;;;1.52;;
26181;SDS011;13927;51.534;11.866;2022-09-23T13:02:56;2.40;;;1.38;;
26181;SDS011;13927;51.534;11.866;2022-09-23T13:05:56;3.03;;;1.70;;
26181;SDS011;13927;51.534;11.866;2022-09-23T13:08:43;2.58;;;1.50;;
26181;SDS011;13927;51.534;11.866;2022-09-23T13:13:50;1.73;;;1.10;;
26181;SDS011;13927;51.534;11.866;2022-09-23T13:16:32;1.45;;;1.30;;
26181;SDS011;13927;51.534;11.866;2022-09-23T13:19:03;2.87;;;1.47;;
26181;SDS011;13927;51.534;11.866;2022-09-23T13:24:14;2.75;;;1.92;;
26181;SDS011;13927;51.534;11.866;2022-09-23T13:26:51;2.78;;;1.80;;
26181;SDS011;13927;51.534;11.866;2022-09-23T13:32:11;3.20;;;1.38;;
26181;SDS011;13927;51.534;11.866;2022-09-23T13:37:51;2.47;;;1.40;;
26181;SDS011;13927;51.534;11.866;2022-09-23T13:40:22;2.33;;;1.45;;
26181;SDS011;13927;51.534;11.866;2022-09-23T13:42:56;4.00;;;1.55;;
26181;SDS011;13927;51.534;11.866;2022-09-23T13:45:26;1.98;;;1.45;;
26181;SDS011;13927;51.534;11.866;2022-09-23T13:48:01;2.35;;;1.65;;
26181;SDS011;13927;51.534;11.866;2022-09-23T13:50:31;2.42;;;1.40;;
26181;SDS011;13927;51.534;11.866;2022-09-23T13:53:05;2.10;;;1.30;;
26181;SDS011;13927;51.534;11.866;2022-09-23T13:55:38;1.70;;;1.30;;
26181;SDS011;13927;51.534;11.866;2022-09-23T13:58:17;2.72;;;1.35;;
26181;SDS011;13927;51.534;11.866;2022-09-23T14:00:48;1.77;;;1.30;;
26181;SDS011;13927;51.534;11.866;2022-09-23T14:03:25;2.00;;;1.30;;
26181;SDS011;13927;51.534;11.866;2022-09-23T14:05:58;2.97;;;1.10;;
26181;SDS011;13927;51.534;11.866;2022-09-23T14:08:27;1.88;;;1.27;;
26181;SDS011;13927;51.534;11.866;2022-09-23T14:10:53;2.78;;;1.20;;
26181;SDS011;13927;51.534;11.866;2022-09-23T14:13:27;2.15;;;1.20;;
26181;SDS011;13927;51.534;11.866;2022-09-23T14:15:58;1.50;;;1.20;;
26181;SDS011;13927;51.534;11.866;2022-09-23T14:18:43;3.20;;;1.25;;
26181;SDS011;13927;51.534;11.866;2022-09-23T14:21:27;1.67;;;1.30;;
26181;SDS011;13927;51.534;11.866;2022-09-23T14:24:17;2.80;;;1.33;;
26181;SDS011;13927;51.534;11.866;2022-09-23T14:26:46;1.35;;;1.10;;
26181;SDS011;13927;51.534;11.866;2022-09-23T14:29:19;3.72;;;1.40;;
26181;SDS011;13927;51.534;11.866;2022-09-23T14:31:56;1.85;;;1.10;;
26181;SDS011;13927;51.534;11.866;2022-09-23T14:35:38;2.85;;;1.10;;
26181;SDS011;13927;51.534;11.866;2022-09-23T14:40:22;3.28;;;1.00;;
26181;SDS011;13927;51.534;11.866;2022-09-23T14:45:25;1.95;;;1.30;;
26181;SDS011;13927;51.534;11.866;2022-09-23T14:48:00;2.42;;;1.50;;
26181;SDS011;13927;51.534;11.866;2022-09-23T14:50:31;2.13;;;1.30;;
26181;SDS011;13927;51.534;11.866;2022-09-23T14:55:43;2.25;;;1.67;;
26181;SDS011;13927;51.534;11.866;2022-09-23T14:58:14;2.17;;;1.40;;
26181;SDS011;13927;51.534;11.866;2022-09-23T15:00:54;1.30;;;1.20;;
26181;SDS011;13927;51.534;11.866;2022-09-23T15:03:23;2.17;;;1.10;;
26181;SDS011;13927;51.534;11.866;2022-09-23T15:05:55;1.75;;;1.25;;
26181;SDS011;13927;51.534;11.866;2022-09-23T15:08:29;2.30;;;1.35;;
26181;SDS011;13927;51.534;11.866;2022-09-23T15:10:57;2.17;;;1.50;;
26181;SDS011;13927;51.534;11.866;2022-09-23T15:13:29;3.83;;;1.48;;
26181;SDS011;13927;51.534;11.866;2022-09-23T15:15:57;3.20;;;1.38;;
26181;SDS011;13927;51.534;11.866;2022-09-23T15:18:29;2.78;;;1.30;;
26181;SDS011;13927;51.534;11.866;2022-09-23T15:21:00;1.38;;;1.25;;
26181;SDS011;13927;51.534;11.866;2022-09-23T15:28:47;2.63;;;1.40;;
26181;SDS011;13927;51.534;11.866;2022-09-23T15:31:16;1.63;;;1.20;;
26181;SDS011;13927;51.534;11.866;2022-09-23T15:33:47;6.15;;;1.58;;
26181;SDS011;13927;51.534;11.866;2022-09-23T15:36:24;13.52;;;3.05;;
26181;SDS011;13927;51.534;11.866;2022-09-23T15:38:51;1.98;;;1.20;;
26181;SDS011;13927;51.534;11.866;2022-09-23T15:41:25;3.83;;;1.27;;
26181;SDS011;13927;51.534;11.866;2022-09-23T15:43:51;2.92;;;1.23;;
26181;SDS011;13927;51.534;11.866;2022-09-23T15:46:20;1.85;;;1.30;;
26181;SDS011;13927;51.534;11.866;2022-09-23T15:48:59;4.35;;;1.42;;
26181;SDS011;13927;51.534;11.866;2022-09-23T15:51:29;4.80;;;1.30;;
26181;SDS011;13927;51.534;11.866;2022-09-23T15:53:56;2.30;;;1.55;;
26181;SDS011;13927;51.534;11.866;2022-09-23T15:56:22;1.60;;;1.33;;
26181;SDS011;13927;51.534;11.866;2022-09-23T15:58:49;2.55;;;1.38;;
26181;SDS011;13927;51.534;11.866;2022-09-23T16:01:27;2.95;;;2.03;;
26181;SDS011;13927;51.534;11.866;2022-09-23T16:03:56;2.72;;;1.50;;
26181;SDS011;13927;51.534;11.866;2022-09-23T16:06:25;2.85;;;2.15;;
26181;SDS011;13927;51.534;11.866;2022-09-23T16:08:51;4.63;;;1.98;;
26181;SDS011;13927;51.534;11.866;2022-09-23T16:11:19;4.00;;;2.40;;
26181;SDS011;13927;51.534;11.866;2022-09-23T16:13:55;3.25;;;2.03;;
26181;SDS011;13927;51.534;11.866;2022-09-23T16:16:27;1.67;;;1.33;;
26181;SDS011;13927;51.534;11.866;2022-09-23T16:18:53;3.33;;;1.58;;
26181;SDS011;13927;51.534;11.866;2022-09-23T16:21:20;2.30;;;1.67;;
26181;SDS011;13927;51.534;11.866;2022-09-23T16:23:49;2.85;;;1.60;;
26181;SDS011;13927;51.534;11.866;2022-09-23T16:26:21;2.05;;;1.25;;
26181;SDS011;13927;51.534;11.866;2022-09-23T16:28:53;2.00;;;1.50;;
26181;SDS011;13927;51.534;11.866;2022-09-23T16:31:21;2.88;;;1.60;;
26181;SDS011;13927;51.534;11.866;2022-09-23T16:33:49;4.30;;;1.80;;
26181;SDS011;13927;51.534;11.866;2022-09-23T16:38:55;3.20;;;1.85;;
26181;SDS011;13927;51.534;11.866;2022-09-23T16:41:24;2.78;;;2.25;;
26181;SDS011;13927;51.534;11.866;2022-09-23T16:43:53;2.58;;;1.50;;
26181;SDS011;13927;51.534;11.866;2022-09-23T16:46:20;2.35;;;1.85;;
26181;SDS011;13927;51.534;11.866;2022-09-23T16:48:47;3.58;;;1.60;;
26181;SDS011;13927;51.534;11.866;2022-09-23T16:51:20;2.42;;;1.83;;
26181;SDS011;13927;51.534;11.866;2022-09-23T16:53:50;3.65;;;1.75;;
26181;SDS011;13927;51.534;11.866;2022-09-23T16:56:18;5.65;;;2.10;;
26181;SDS011;13927;51.534;11.866;2022-09-23T16:58:47;3.50;;;2.00;;
26181;SDS011;13927;51.534;11.866;2022-09-23T17:01:22;2.33;;;2.00;;
26181;SDS011;13927;51.534;11.866;2022-09-23T17:04:09;3.25;;;2.10;;
26181;SDS011;13927;51.534;11.866;2022-09-23T17:06:40;3.38;;;2.30;;
26181;SDS011;13927;51.534;11.866;2022-09-23T17:09:12;6.65;;;2.97;;
26181;SDS011;13927;51.534;11.866;2022-09-23T17:11:38;8.25;;;6.25;;
26181;SDS011;13927;51.534;11.866;2022-09-23T17:14:04;12.38;;;7.75;;
26181;SDS011;13927;51.534;11.866;2022-09-23T17:16:30;13.98;;;9.48;;
26181;SDS011;13927;51.534;11.866;2022-09-23T17:18:58;12.15;;;10.63;;
26181;SDS011;13927;51.534;11.866;2022-09-23T17:21:30;10.20;;;6.50;;
26181;SDS011;13927;51.534;11.866;2022-09-23T17:23:56;7.53;;;5.05;;
26181;SDS011;13927;51.534;11.866;2022-09-23T17:26:23;8.13;;;5.53;;
26181;SDS011;13927;51.534;11.866;2022-09-23T17:28:50;7.93;;;5.60;;
26181;SDS011;13927;51.534;11.866;2022-09-23T17:31:21;5.05;;;4.10;;
26181;SDS011;13927;51.534;11.866;2022-09-23T17:33:48;6.43;;;3.35;;
26181;SDS011;13927;51.534;11.866;2022-09-23T17:36:15;3.95;;;3.08;;
26181;SDS011;13927;51.534;11.866;2022-09-23T17:38:42;6.15;;;3.50;;
26181;SDS011;13927;51.534;11.866;2022-09-23T17:41:09;6.50;;;4.03;;
26181;SDS011;13927;51.534;11.866;2022-09-23T17:43:36;5.30;;;3.42;;
26181;SDS011;13927;51.534;11.866;2022-09-23T17:46:04;7.57;;;4.78;;
26181;SDS011;13927;51.534;11.866;2022-09-23T17:51:15;4.53;;;3.45;;
26181;SDS011;13927;51.534;11.866;2022-09-23T17:53:44;4.78;;;3.05;;
26181;SDS011;13927;51.534;11.866;2022-09-23T17:56:13;3.72;;;2.55;;
26181;SDS011;13927;51.534;11.866;2022-09-23T17:58:44;3.65;;;2.60;;
26181;SDS011;13927;51.534;11.866;2022-09-23T18:01:13;3.33;;;2.40;;
26181;SDS011;13927;51.534;11.866;2022-09-23T18:03:45;2.78;;;2.30;;
26181;SDS011;13927;51.534;11.866;2022-09-23T18:06:16;3.75;;;2.90;;
26181;SDS011;13927;51.534;11.866;2022-09-23T18:08:47;3.92;;;2.97;;
26181;SDS011;13927;51.534;11.866;2022-09-23T18:11:21;3.95;;;2.97;;
26181;SDS011;13927;51.534;11.866;2022-09-23T18:13:51;2.97;;;2.58;;
26181;SDS011;13927;51.534;11.866;2022-09-23T18:16:23;4.07;;;2.83;;
26181;SDS011;13927;51.534;11.866;2022-09-23T18:18:52;4.05;;;3.10;;
26181;SDS011;13927;51.534;11.866;2022-09-23T18:21:20;6.22;;;3.55;;
26181;SDS011;13927;51.534;11.866;2022-09-23T18:23:49;4.38;;;3.42;;
26181;SDS011;13927;51.534;11.866;2022-09-23T18:26:15;10.20;;;3.63;;
26181;SDS011;13927;51.534;11.866;2022-09-23T18:28:46;6.65;;;3.25;;
26181;SDS011;13927;51.534;11.866;2022-09-23T18:31:13;7.63;;;2.92;;
26181;SDS011;13927;51.534;11.866;2022-09-23T18:33:39;4.85;;;3.03;;
26181;SDS011;13927;51.534;11.866;2022-09-23T18:36:05;2.97;;;2.67;;
26181;SDS011;13927;51.534;11.866;2022-09-23T18:38:32;3.42;;;2.80;;
26181;SDS011;13927;51.534;11.866;2022-09-23T18:40:58;4.63;;;3.30;;
26181;SDS011;13927;51.534;11.866;2022-09-23T18:43:25;5.68;;;3.58;;